sensor_id;sensor_type;location;lat;lon;timestamp;P1;durP1;ratioP1;P2;durP2;ratioP2
13415;SDS011;6779;50.150;8.680;2023-11-18T00:02:14;21.77;;;14.27;;
13415;SDS011;6779;50.150;8.680;2023-11-18T00:04:40;20.93;;;14.73;;
13415;SDS011;6779;50.150;8.680;2023-11-18T00:07:05;23.80;;;15.40;;
13415;SDS011;6779;50.150;8.680;2023-11-18T00:09:30;19.67;;;14.60;;
13415;SDS011;6779;50.150;8.680;2023-11-18T00:11:56;23.00;;;14.73;;
13415;SDS011;6779;50.150;8.680;2023-11-18T00:14:21;20.87;;;15.13;;
13415;SDS011;6779;50.150;8.680;2023-11-18T00:16:47;24.07;;;13.63;;
13415;SDS011;6779;50.150;8.680;2023-11-18T00:19:12;21.23;;;13.73;;
13415;SDS011;6779;50.150;8.680;2023-11-18T00:21:37;21.53;;;14.10;;
13415;SDS011;6779;50.150;8.680;2023-11-18T00:24:03;22.10;;;14.40;;
13415;SDS011;6779;50.150;8.680;2023-11-18T00:26:29;21.70;;;14.53;;
13415;SDS011;6779;50.150;8.680;2023-11-18T00:28:54;21.77;;;13.30;;
13415;SDS011;6779;50.150;8.680;2023-11-18T00:31:19;20.20;;;13.77;;
13415;SDS011;6779;50.150;8.680;2023-11-18T00:33:44;20.57;;;13.87;;
13415;SDS011;6779;50.150;8.680;2023-11-18T00:36:10;23.03;;;14.63;;
13415;SDS011;6779;50.150;8.680;2023-11-18T00:38:35;24.83;;;14.80;;
13415;SDS011;6779;50.150;8.680;2023-11-18T00:41:01;19.90;;;13.70;;
13415;SDS011;6779;50.150;8.680;2023-11-18T00:43:26;19.47;;;14.63;;
13415;SDS011;6779;50.150;8.680;2023-11-18T00:45:51;18.63;;;14.43;;
13415;SDS011;6779;50.150;8.680;2023-11-18T00:48:17;21.17;;;13.77;;
13415;SDS011;6779;50.150;8.680;2023-11-18T00:50:42;20.03;;;14.30;;
13415;SDS011;6779;50.150;8.680;2023-11-18T00:53:07;20.97;;;14.17;;
13415;SDS011;6779;50.150;8.680;2023-11-18T00:55:33;19.80;;;14.20;;
13415;SDS011;6779;50.150;8.680;2023-11-18T00:57:58;21.87;;;14.73;;
13415;SDS011;6779;50.150;8.680;2023-11-18T01:00:23;20.27;;;13.00;;
13415;SDS011;6779;50.150;8.680;2023-11-18T01:02:52;24.47;;;13.63;;
13415;SDS011;6779;50.150;8.680;2023-11-18T01:05:19;21.20;;;14.23;;
13415;SDS011;6779;50.150;8.680;2023-11-18T01:07:44;23.50;;;15.63;;
13415;SDS011;6779;50.150;8.680;2023-11-18T01:10:10;22.80;;;15.30;;
13415;SDS011;6779;50.150;8.680;2023-11-18T01:12:36;23.17;;;13.57;;
13415;SDS011;6779;50.150;8.680;2023-11-18T01:15:01;22.87;;;14.07;;
13415;SDS011;6779;50.150;8.680;2023-11-18T01:17:28;22.93;;;14.67;;
13415;SDS011;6779;50.150;8.680;2023-11-18T01:19:54;22.27;;;12.73;;
13415;SDS011;6779;50.150;8.680;2023-11-18T01:22:19;22.50;;;14.07;;
13415;SDS011;6779;50.150;8.680;2023-11-18T01:24:44;17.67;;;12.87;;
13415;SDS011;6779;50.150;8.680;2023-11-18T01:27:10;23.60;;;13.60;;
13415;SDS011;6779;50.150;8.680;2023-11-18T01:29:36;21.20;;;14.83;;
13415;SDS011;6779;50.150;8.680;2023-11-18T01:32:01;20.50;;;12.77;;
13415;SDS011;6779;50.150;8.680;2023-11-18T01:34:33;20.50;;;13.37;;
13415;SDS011;6779;50.150;8.680;2023-11-18T01:36:59;26.20;;;15.23;;
13415;SDS011;6779;50.150;8.680;2023-11-18T01:39:24;24.43;;;14.70;;
13415;SDS011;6779;50.150;8.680;2023-11-18T01:41:51;21.47;;;15.10;;
13415;SDS011;6779;50.150;8.680;2023-11-18T01:44:16;23.40;;;14.37;;
13415;SDS011;6779;50.150;8.680;2023-11-18T01:46:44;22.53;;;15.53;;
13415;SDS011;6779;50.150;8.680;2023-11-18T01:49:10;22.30;;;13.80;;
13415;SDS011;6779;50.150;8.680;2023-11-18T01:51:36;19.90;;;14.03;;
13415;SDS011;6779;50.150;8.680;2023-11-18T01:54:02;20.30;;;13.57;;
13415;SDS011;6779;50.150;8.680;2023-11-18T01:56:30;19.90;;;13.80;;
13415;SDS011;6779;50.150;8.680;2023-11-18T01:58:57;22.57;;;13.87;;
13415;SDS011;6779;50.150;8.680;2023-11-18T02:01:23;19.20;;;12.60;;
13415;SDS011;6779;50.150;8.680;2023-11-18T02:03:50;19.13;;;13.43;;
13415;SDS011;6779;50.150;8.680;2023-11-18T02:06:15;18.03;;;13.40;;
13415;SDS011;6779;50.150;8.680;2023-11-18T02:08:42;20.43;;;13.30;;
13415;SDS011;6779;50.150;8.680;2023-11-18T02:11:14;18.53;;;12.90;;
13415;SDS011;6779;50.150;8.680;2023-11-18T02:13:54;19.53;;;13.40;;
13415;SDS011;6779;50.150;8.680;2023-11-18T02:16:20;18.07;;;13.27;;
13415;SDS011;6779;50.150;8.680;2023-11-18T02:18:47;16.53;;;12.33;;
13415;SDS011;6779;50.150;8.680;2023-11-18T02:21:14;17.20;;;12.47;;
13415;SDS011;6779;50.150;8.680;2023-11-18T02:23:40;18.47;;;12.90;;
13415;SDS011;6779;50.150;8.680;2023-11-18T02:26:07;17.63;;;13.17;;
13415;SDS011;6779;50.150;8.680;2023-11-18T02:28:33;20.23;;;13.07;;
13415;SDS011;6779;50.150;8.680;2023-11-18T02:31:03;20.60;;;14.30;;
13415;SDS011;6779;50.150;8.680;2023-11-18T02:33:35;18.80;;;13.80;;
13415;SDS011;6779;50.150;8.680;2023-11-18T02:36:16;17.90;;;13.27;;
13415;SDS011;6779;50.150;8.680;2023-11-18T02:38:47;16.77;;;12.63;;
13415;SDS011;6779;50.150;8.680;2023-11-18T02:41:15;16.20;;;11.57;;
13415;SDS011;6779;50.150;8.680;2023-11-18T02:43:43;16.13;;;12.20;;
13415;SDS011;6779;50.150;8.680;2023-11-18T02:46:09;16.30;;;11.87;;
13415;SDS011;6779;50.150;8.680;2023-11-18T02:48:37;18.27;;;12.97;;
13415;SDS011;6779;50.150;8.680;2023-11-18T02:51:02;17.77;;;12.67;;
13415;SDS011;6779;50.150;8.680;2023-11-18T02:53:28;19.87;;;12.90;;
13415;SDS011;6779;50.150;8.680;2023-11-18T02:55:53;17.23;;;12.60;;
13415;SDS011;6779;50.150;8.680;2023-11-18T02:58:19;17.23;;;11.60;;
13415;SDS011;6779;50.150;8.680;2023-11-18T03:00:45;15.17;;;11.33;;
13415;SDS011;6779;50.150;8.680;2023-11-18T03:03:10;16.20;;;11.73;;
13415;SDS011;6779;50.150;8.680;2023-11-18T03:05:36;15.37;;;11.10;;
13415;SDS011;6779;50.150;8.680;2023-11-18T03:08:01;13.93;;;11.13;;
13415;SDS011;6779;50.150;8.680;2023-11-18T03:10:28;14.53;;;10.60;;
13415;SDS011;6779;50.150;8.680;2023-11-18T03:12:55;14.37;;;11.07;;
13415;SDS011;6779;50.150;8.680;2023-11-18T03:15:23;16.60;;;11.13;;
13415;SDS011;6779;50.150;8.680;2023-11-18T03:17:48;12.67;;;10.10;;
13415;SDS011;6779;50.150;8.680;2023-11-18T03:20:18;13.90;;;10.17;;
13415;SDS011;6779;50.150;8.680;2023-11-18T03:22:44;13.27;;;9.97;;
13415;SDS011;6779;50.150;8.680;2023-11-18T03:25:10;13.87;;;10.10;;
13415;SDS011;6779;50.150;8.680;2023-11-18T03:27:36;14.10;;;10.30;;
13415;SDS011;6779;50.150;8.680;2023-11-18T03:30:01;15.70;;;10.73;;
13415;SDS011;6779;50.150;8.680;2023-11-18T03:32:27;13.77;;;9.93;;
13415;SDS011;6779;50.150;8.680;2023-11-18T03:34:53;12.50;;;10.33;;
13415;SDS011;6779;50.150;8.680;2023-11-18T03:37:18;15.13;;;10.80;;
13415;SDS011;6779;50.150;8.680;2023-11-18T03:39:44;12.77;;;11.00;;
13415;SDS011;6779;50.150;8.680;2023-11-18T03:42:10;14.87;;;10.17;;
13415;SDS011;6779;50.150;8.680;2023-11-18T03:44:35;16.07;;;10.53;;
13415;SDS011;6779;50.150;8.680;2023-11-18T03:47:02;16.10;;;10.70;;
13415;SDS011;6779;50.150;8.680;2023-11-18T03:49:28;21.57;;;10.43;;
13415;SDS011;6779;50.150;8.680;2023-11-18T03:51:53;21.97;;;10.67;;
13415;SDS011;6779;50.150;8.680;2023-11-18T03:54:18;19.93;;;11.00;;
13415;SDS011;6779;50.150;8.680;2023-11-18T03:56:43;18.97;;;10.63;;
13415;SDS011;6779;50.150;8.680;2023-11-18T03:59:09;20.93;;;10.17;;
13415;SDS011;6779;50.150;8.680;2023-11-18T04:01:34;17.77;;;9.83;;
13415;SDS011;6779;50.150;8.680;2023-11-18T04:03:59;20.17;;;10.97;;
13415;SDS011;6779;50.150;8.680;2023-11-18T04:06:25;14.33;;;10.77;;
13415;SDS011;6779;50.150;8.680;2023-11-18T04:08:50;22.13;;;10.97;;
13415;SDS011;6779;50.150;8.680;2023-11-18T04:11:16;24.97;;;10.17;;
13415;SDS011;6779;50.150;8.680;2023-11-18T04:13:41;19.53;;;11.07;;
13415;SDS011;6779;50.150;8.680;2023-11-18T04:16:09;20.07;;;11.20;;
13415;SDS011;6779;50.150;8.680;2023-11-18T04:18:38;26.27;;;10.67;;
13415;SDS011;6779;50.150;8.680;2023-11-18T04:21:05;20.60;;;11.30;;
13415;SDS011;6779;50.150;8.680;2023-11-18T04:23:32;18.60;;;10.80;;
13415;SDS011;6779;50.150;8.680;2023-11-18T04:25:59;20.60;;;10.73;;
13415;SDS011;6779;50.150;8.680;2023-11-18T04:28:25;16.00;;;10.77;;
13415;SDS011;6779;50.150;8.680;2023-11-18T04:30:51;20.07;;;10.60;;
13415;SDS011;6779;50.150;8.680;2023-11-18T04:33:17;24.97;;;11.73;;
13415;SDS011;6779;50.150;8.680;2023-11-18T04:35:43;23.07;;;11.60;;
13415;SDS011;6779;50.150;8.680;2023-11-18T04:38:11;14.70;;;10.53;;
13415;SDS011;6779;50.150;8.680;2023-11-18T04:40:36;17.27;;;11.57;;
13415;SDS011;6779;50.150;8.680;2023-11-18T04:43:03;14.97;;;11.03;;
13415;SDS011;6779;50.150;8.680;2023-11-18T04:45:29;23.80;;;11.60;;
13415;SDS011;6779;50.150;8.680;2023-11-18T04:47:55;16.77;;;11.33;;
13415;SDS011;6779;50.150;8.680;2023-11-18T04:50:21;17.80;;;11.47;;
13415;SDS011;6779;50.150;8.680;2023-11-18T04:52:46;15.23;;;10.60;;
13415;SDS011;6779;50.150;8.680;2023-11-18T04:55:11;14.43;;;10.40;;
13415;SDS011;6779;50.150;8.680;2023-11-18T04:57:38;15.93;;;11.17;;
13415;SDS011;6779;50.150;8.680;2023-11-18T05:00:04;17.10;;;10.90;;
13415;SDS011;6779;50.150;8.680;2023-11-18T05:02:36;14.83;;;11.03;;
13415;SDS011;6779;50.150;8.680;2023-11-18T05:05:02;21.87;;;12.03;;
13415;SDS011;6779;50.150;8.680;2023-11-18T05:07:30;17.53;;;11.77;;
13415;SDS011;6779;50.150;8.680;2023-11-18T05:09:55;19.20;;;12.37;;
13415;SDS011;6779;50.150;8.680;2023-11-18T05:12:21;18.03;;;11.70;;
13415;SDS011;6779;50.150;8.680;2023-11-18T05:14:46;19.43;;;12.20;;
13415;SDS011;6779;50.150;8.680;2023-11-18T05:17:14;18.63;;;11.50;;
13415;SDS011;6779;50.150;8.680;2023-11-18T05:19:43;20.63;;;12.03;;
13415;SDS011;6779;50.150;8.680;2023-11-18T05:22:08;20.53;;;13.13;;
13415;SDS011;6779;50.150;8.680;2023-11-18T05:24:34;18.80;;;11.90;;
13415;SDS011;6779;50.150;8.680;2023-11-18T05:26:59;17.27;;;12.10;;
13415;SDS011;6779;50.150;8.680;2023-11-18T05:29:28;17.67;;;11.97;;
13415;SDS011;6779;50.150;8.680;2023-11-18T05:31:53;21.40;;;12.63;;
13415;SDS011;6779;50.150;8.680;2023-11-18T05:34:19;19.93;;;12.40;;
13415;SDS011;6779;50.150;8.680;2023-11-18T05:36:45;21.13;;;12.50;;
13415;SDS011;6779;50.150;8.680;2023-11-18T05:39:11;22.93;;;12.93;;
13415;SDS011;6779;50.150;8.680;2023-11-18T05:41:37;18.27;;;11.87;;
13415;SDS011;6779;50.150;8.680;2023-11-18T05:44:04;18.20;;;12.17;;
13415;SDS011;6779;50.150;8.680;2023-11-18T05:46:31;22.03;;;13.17;;
13415;SDS011;6779;50.150;8.680;2023-11-18T05:48:57;23.50;;;14.20;;
13415;SDS011;6779;50.150;8.680;2023-11-18T05:51:27;21.60;;;13.50;;
13415;SDS011;6779;50.150;8.680;2023-11-18T05:53:54;20.73;;;12.73;;
13415;SDS011;6779;50.150;8.680;2023-11-18T05:56:20;21.73;;;12.90;;
13415;SDS011;6779;50.150;8.680;2023-11-18T05:58:50;21.53;;;12.77;;
13415;SDS011;6779;50.150;8.680;2023-11-18T06:01:18;21.10;;;13.50;;
13415;SDS011;6779;50.150;8.680;2023-11-18T06:03:43;26.17;;;14.20;;
13415;SDS011;6779;50.150;8.680;2023-11-18T06:06:10;22.90;;;14.83;;
13415;SDS011;6779;50.150;8.680;2023-11-18T06:08:39;23.40;;;13.20;;
13415;SDS011;6779;50.150;8.680;2023-11-18T06:11:06;24.20;;;14.63;;
13415;SDS011;6779;50.150;8.680;2023-11-18T06:13:38;21.50;;;13.30;;
13415;SDS011;6779;50.150;8.680;2023-11-18T06:16:07;23.63;;;13.97;;
13415;SDS011;6779;50.150;8.680;2023-11-18T06:18:45;25.00;;;14.57;;
13415;SDS011;6779;50.150;8.680;2023-11-18T06:21:11;23.63;;;13.47;;
13415;SDS011;6779;50.150;8.680;2023-11-18T06:23:37;25.27;;;14.27;;
13415;SDS011;6779;50.150;8.680;2023-11-18T06:26:02;23.43;;;13.87;;
13415;SDS011;6779;50.150;8.680;2023-11-18T06:28:29;26.90;;;15.57;;
13415;SDS011;6779;50.150;8.680;2023-11-18T06:30:54;25.83;;;14.93;;
13415;SDS011;6779;50.150;8.680;2023-11-18T06:33:20;23.70;;;14.43;;
13415;SDS011;6779;50.150;8.680;2023-11-18T06:35:47;22.97;;;14.43;;
13415;SDS011;6779;50.150;8.680;2023-11-18T06:38:13;24.43;;;14.50;;
13415;SDS011;6779;50.150;8.680;2023-11-18T06:40:40;28.10;;;14.47;;
13415;SDS011;6779;50.150;8.680;2023-11-18T06:43:05;27.70;;;15.50;;
13415;SDS011;6779;50.150;8.680;2023-11-18T06:45:35;29.37;;;15.30;;
13415;SDS011;6779;50.150;8.680;2023-11-18T06:48:02;25.77;;;14.63;;
13415;SDS011;6779;50.150;8.680;2023-11-18T06:50:30;26.87;;;15.47;;
13415;SDS011;6779;50.150;8.680;2023-11-18T06:52:57;31.87;;;15.83;;
13415;SDS011;6779;50.150;8.680;2023-11-18T06:55:22;29.23;;;16.10;;
13415;SDS011;6779;50.150;8.680;2023-11-18T06:57:47;29.10;;;14.90;;
13415;SDS011;6779;50.150;8.680;2023-11-18T07:00:13;28.40;;;15.77;;
13415;SDS011;6779;50.150;8.680;2023-11-18T07:02:40;30.17;;;17.00;;
13415;SDS011;6779;50.150;8.680;2023-11-18T07:05:05;28.40;;;15.30;;
13415;SDS011;6779;50.150;8.680;2023-11-18T07:07:31;31.17;;;16.63;;
13415;SDS011;6779;50.150;8.680;2023-11-18T07:09:57;32.30;;;16.93;;
13415;SDS011;6779;50.150;8.680;2023-11-18T07:12:22;35.13;;;16.57;;
13415;SDS011;6779;50.150;8.680;2023-11-18T07:14:48;31.30;;;16.97;;
13415;SDS011;6779;50.150;8.680;2023-11-18T07:17:13;33.33;;;16.13;;
13415;SDS011;6779;50.150;8.680;2023-11-18T07:19:39;31.37;;;16.70;;
13415;SDS011;6779;50.150;8.680;2023-11-18T07:22:05;33.93;;;17.10;;
13415;SDS011;6779;50.150;8.680;2023-11-18T07:24:31;32.87;;;17.03;;
13415;SDS011;6779;50.150;8.680;2023-11-18T07:26:57;35.10;;;16.00;;
13415;SDS011;6779;50.150;8.680;2023-11-18T07:29:24;35.53;;;17.13;;
13415;SDS011;6779;50.150;8.680;2023-11-18T07:31:50;28.63;;;14.97;;
13415;SDS011;6779;50.150;8.680;2023-11-18T07:34:15;27.17;;;14.80;;
13415;SDS011;6779;50.150;8.680;2023-11-18T07:36:40;30.03;;;15.63;;
13415;SDS011;6779;50.150;8.680;2023-11-18T07:39:06;30.93;;;14.53;;
13415;SDS011;6779;50.150;8.680;2023-11-18T07:41:40;34.47;;;15.90;;
13415;SDS011;6779;50.150;8.680;2023-11-18T07:44:06;32.53;;;15.33;;
13415;SDS011;6779;50.150;8.680;2023-11-18T07:46:31;31.37;;;15.30;;
13415;SDS011;6779;50.150;8.680;2023-11-18T07:48:56;33.83;;;17.90;;
13415;SDS011;6779;50.150;8.680;2023-11-18T07:51:22;39.77;;;16.97;;
13415;SDS011;6779;50.150;8.680;2023-11-18T07:53:48;37.10;;;17.63;;
13415;SDS011;6779;50.150;8.680;2023-11-18T07:56:14;37.40;;;16.83;;
13415;SDS011;6779;50.150;8.680;2023-11-18T07:58:41;37.40;;;16.50;;
13415;SDS011;6779;50.150;8.680;2023-11-18T08:01:12;35.53;;;17.43;;
13415;SDS011;6779;50.150;8.680;2023-11-18T08:03:37;38.80;;;17.57;;
13415;SDS011;6779;50.150;8.680;2023-11-18T08:06:03;38.23;;;16.47;;
13415;SDS011;6779;50.150;8.680;2023-11-18T08:08:31;40.73;;;18.57;;
13415;SDS011;6779;50.150;8.680;2023-11-18T08:10:57;49.67;;;18.40;;
13415;SDS011;6779;50.150;8.680;2023-11-18T08:13:23;44.03;;;17.43;;
13415;SDS011;6779;50.150;8.680;2023-11-18T08:15:48;38.53;;;18.53;;
13415;SDS011;6779;50.150;8.680;2023-11-18T08:18:14;41.17;;;18.30;;
13415;SDS011;6779;50.150;8.680;2023-11-18T08:20:39;42.30;;;17.70;;
13415;SDS011;6779;50.150;8.680;2023-11-18T08:23:06;43.70;;;18.83;;
13415;SDS011;6779;50.150;8.680;2023-11-18T08:25:31;36.70;;;16.60;;
13415;SDS011;6779;50.150;8.680;2023-11-18T08:28:00;39.17;;;17.63;;
13415;SDS011;6779;50.150;8.680;2023-11-18T08:30:26;37.70;;;17.20;;
13415;SDS011;6779;50.150;8.680;2023-11-18T08:32:51;40.27;;;17.40;;
13415;SDS011;6779;50.150;8.680;2023-11-18T08:35:17;39.00;;;18.03;;
13415;SDS011;6779;50.150;8.680;2023-11-18T08:37:42;38.57;;;17.43;;
13415;SDS011;6779;50.150;8.680;2023-11-18T08:40:08;40.57;;;18.23;;
13415;SDS011;6779;50.150;8.680;2023-11-18T08:42:40;36.03;;;16.30;;
13415;SDS011;6779;50.150;8.680;2023-11-18T08:45:13;38.80;;;16.97;;
13415;SDS011;6779;50.150;8.680;2023-11-18T08:47:41;40.00;;;17.70;;
13415;SDS011;6779;50.150;8.680;2023-11-18T08:50:12;36.50;;;16.50;;
13415;SDS011;6779;50.150;8.680;2023-11-18T08:52:38;35.27;;;17.37;;
13415;SDS011;6779;50.150;8.680;2023-11-18T08:55:08;137.77;;;24.87;;
13415;SDS011;6779;50.150;8.680;2023-11-18T08:57:38;52.30;;;18.73;;
13415;SDS011;6779;50.150;8.680;2023-11-18T09:00:17;38.67;;;17.37;;
13415;SDS011;6779;50.150;8.680;2023-11-18T09:03:02;37.67;;;18.87;;
13415;SDS011;6779;50.150;8.680;2023-11-18T09:05:30;42.17;;;18.93;;
13415;SDS011;6779;50.150;8.680;2023-11-18T09:07:57;37.27;;;17.20;;
13415;SDS011;6779;50.150;8.680;2023-11-18T09:10:25;42.90;;;18.40;;
13415;SDS011;6779;50.150;8.680;2023-11-18T09:12:51;36.33;;;17.67;;
13415;SDS011;6779;50.150;8.680;2023-11-18T09:15:17;48.27;;;19.63;;
13415;SDS011;6779;50.150;8.680;2023-11-18T09:17:47;37.10;;;18.73;;
13415;SDS011;6779;50.150;8.680;2023-11-18T09:20:13;40.10;;;17.40;;
13415;SDS011;6779;50.150;8.680;2023-11-18T09:22:43;36.60;;;17.70;;
13415;SDS011;6779;50.150;8.680;2023-11-18T09:25:09;43.50;;;19.13;;
13415;SDS011;6779;50.150;8.680;2023-11-18T09:27:35;39.40;;;18.77;;
13415;SDS011;6779;50.150;8.680;2023-11-18T09:30:01;39.90;;;18.17;;
13415;SDS011;6779;50.150;8.680;2023-11-18T09:32:38;41.57;;;18.17;;
13415;SDS011;6779;50.150;8.680;2023-11-18T09:35:04;37.63;;;17.00;;
13415;SDS011;6779;50.150;8.680;2023-11-18T09:37:34;37.10;;;16.83;;
13415;SDS011;6779;50.150;8.680;2023-11-18T09:39:59;36.50;;;18.17;;
13415;SDS011;6779;50.150;8.680;2023-11-18T09:42:36;35.90;;;17.57;;
13415;SDS011;6779;50.150;8.680;2023-11-18T09:45:02;39.60;;;18.33;;
13415;SDS011;6779;50.150;8.680;2023-11-18T09:47:30;41.23;;;18.50;;
13415;SDS011;6779;50.150;8.680;2023-11-18T09:50:05;37.20;;;18.67;;
13415;SDS011;6779;50.150;8.680;2023-11-18T09:52:35;37.70;;;18.40;;
13415;SDS011;6779;50.150;8.680;2023-11-18T09:55:09;36.03;;;19.27;;
13415;SDS011;6779;50.150;8.680;2023-11-18T09:57:40;36.23;;;17.63;;
13415;SDS011;6779;50.150;8.680;2023-11-18T10:00:09;35.23;;;18.60;;
13415;SDS011;6779;50.150;8.680;2023-11-18T10:02:50;40.63;;;19.27;;
13415;SDS011;6779;50.150;8.680;2023-11-18T10:05:15;41.30;;;19.13;;
13415;SDS011;6779;50.150;8.680;2023-11-18T10:07:45;33.90;;;18.93;;
13415;SDS011;6779;50.150;8.680;2023-11-18T10:10:12;39.87;;;19.63;;
13415;SDS011;6779;50.150;8.680;2023-11-18T10:12:43;37.97;;;18.60;;
13415;SDS011;6779;50.150;8.680;2023-11-18T10:15:17;38.03;;;18.60;;
13415;SDS011;6779;50.150;8.680;2023-11-18T10:17:44;33.30;;;17.30;;
13415;SDS011;6779;50.150;8.680;2023-11-18T10:20:22;38.50;;;20.27;;
13415;SDS011;6779;50.150;8.680;2023-11-18T10:22:57;34.53;;;19.07;;
13415;SDS011;6779;50.150;8.680;2023-11-18T10:25:30;33.93;;;18.07;;
13415;SDS011;6779;50.150;8.680;2023-11-18T10:27:56;39.73;;;19.60;;
13415;SDS011;6779;50.150;8.680;2023-11-18T10:30:22;33.53;;;19.07;;
13415;SDS011;6779;50.150;8.680;2023-11-18T10:32:58;34.30;;;18.57;;
13415;SDS011;6779;50.150;8.680;2023-11-18T10:35:31;38.57;;;19.10;;
13415;SDS011;6779;50.150;8.680;2023-11-18T10:37:57;37.63;;;20.37;;
13415;SDS011;6779;50.150;8.680;2023-11-18T10:40:25;37.37;;;19.63;;
13415;SDS011;6779;50.150;8.680;2023-11-18T10:42:50;37.57;;;19.63;;
13415;SDS011;6779;50.150;8.680;2023-11-18T10:45:23;33.67;;;19.47;;
13415;SDS011;6779;50.150;8.680;2023-11-18T10:47:50;40.57;;;21.47;;
13415;SDS011;6779;50.150;8.680;2023-11-18T10:50:15;44.97;;;21.73;;
13415;SDS011;6779;50.150;8.680;2023-11-18T10:52:44;40.77;;;20.47;;
13415;SDS011;6779;50.150;8.680;2023-11-18T10:55:11;42.40;;;21.40;;
13415;SDS011;6779;50.150;8.680;2023-11-18T10:57:36;44.30;;;23.93;;
13415;SDS011;6779;50.150;8.680;2023-11-18T11:00:04;46.40;;;22.70;;
13415;SDS011;6779;50.150;8.680;2023-11-18T11:02:38;53.60;;;24.10;;
13415;SDS011;6779;50.150;8.680;2023-11-18T11:05:06;50.30;;;22.73;;
13415;SDS011;6779;50.150;8.680;2023-11-18T11:07:32;49.37;;;22.70;;
13415;SDS011;6779;50.150;8.680;2023-11-18T11:09:58;46.00;;;22.87;;
13415;SDS011;6779;50.150;8.680;2023-11-18T11:12:25;50.67;;;23.70;;
13415;SDS011;6779;50.150;8.680;2023-11-18T11:14:57;40.97;;;22.93;;
13415;SDS011;6779;50.150;8.680;2023-11-18T11:17:24;34.63;;;20.40;;
13415;SDS011;6779;50.150;8.680;2023-11-18T11:28:38;27.77;;;17.53;;
13415;SDS011;6779;50.150;8.680;2023-11-18T11:31:12;29.97;;;18.47;;
13415;SDS011;6779;50.150;8.680;2023-11-18T11:33:43;29.40;;;18.40;;
13415;SDS011;6779;50.150;8.680;2023-11-18T11:36:11;27.00;;;17.63;;
13415;SDS011;6779;50.150;8.680;2023-11-18T11:38:41;27.03;;;16.43;;
13415;SDS011;6779;50.150;8.680;2023-11-18T11:41:11;27.47;;;16.73;;
13415;SDS011;6779;50.150;8.680;2023-11-18T11:43:44;24.03;;;15.67;;
13415;SDS011;6779;50.150;8.680;2023-11-18T11:46:11;23.23;;;14.20;;
13415;SDS011;6779;50.150;8.680;2023-11-18T11:48:38;23.83;;;15.63;;
13415;SDS011;6779;50.150;8.680;2023-11-18T11:53:49;23.63;;;15.63;;
13415;SDS011;6779;50.150;8.680;2023-11-18T11:56:17;24.37;;;15.53;;
13415;SDS011;6779;50.150;8.680;2023-11-18T11:58:48;20.60;;;14.07;;
13415;SDS011;6779;50.150;8.680;2023-11-18T12:01:28;20.73;;;15.60;;
13415;SDS011;6779;50.150;8.680;2023-11-18T12:04:04;22.20;;;15.60;;
13415;SDS011;6779;50.150;8.680;2023-11-18T12:06:40;23.10;;;15.60;;
13415;SDS011;6779;50.150;8.680;2023-11-18T12:09:08;22.23;;;15.83;;
13415;SDS011;6779;50.150;8.680;2023-11-18T12:11:35;22.87;;;16.53;;
13415;SDS011;6779;50.150;8.680;2023-11-18T12:14:08;21.47;;;14.87;;
13415;SDS011;6779;50.150;8.680;2023-11-18T12:19:37;21.70;;;14.37;;
13415;SDS011;6779;50.150;8.680;2023-11-18T12:22:12;19.53;;;14.17;;
13415;SDS011;6779;50.150;8.680;2023-11-18T12:24:43;21.57;;;15.03;;
13415;SDS011;6779;50.150;8.680;2023-11-18T12:27:41;24.27;;;15.80;;
13415;SDS011;6779;50.150;8.680;2023-11-18T12:35:29;27.33;;;16.97;;
13415;SDS011;6779;50.150;8.680;2023-11-18T12:40:59;22.20;;;16.10;;
13415;SDS011;6779;50.150;8.680;2023-11-18T12:46:28;21.60;;;14.63;;
13415;SDS011;6779;50.150;8.680;2023-11-18T12:49:15;22.47;;;15.20;;
13415;SDS011;6779;50.150;8.680;2023-11-18T12:51:41;20.67;;;14.70;;
13415;SDS011;6779;50.150;8.680;2023-11-18T12:54:08;21.80;;;14.97;;
13415;SDS011;6779;50.150;8.680;2023-11-18T12:56:36;21.77;;;14.40;;
13415;SDS011;6779;50.150;8.680;2023-11-18T12:59:09;20.50;;;14.67;;
13415;SDS011;6779;50.150;8.680;2023-11-18T13:01:34;23.37;;;13.43;;
13415;SDS011;6779;50.150;8.680;2023-11-18T13:04:02;18.37;;;13.53;;
13415;SDS011;6779;50.150;8.680;2023-11-18T13:06:28;18.03;;;13.60;;
13415;SDS011;6779;50.150;8.680;2023-11-18T13:08:53;21.33;;;13.50;;
13415;SDS011;6779;50.150;8.680;2023-11-18T13:11:19;21.87;;;13.67;;
13415;SDS011;6779;50.150;8.680;2023-11-18T13:13:48;23.80;;;14.97;;
13415;SDS011;6779;50.150;8.680;2023-11-18T13:16:15;19.70;;;14.43;;
13415;SDS011;6779;50.150;8.680;2023-11-18T13:18:46;23.57;;;15.40;;
13415;SDS011;6779;50.150;8.680;2023-11-18T13:21:19;19.83;;;14.43;;
13415;SDS011;6779;50.150;8.680;2023-11-18T13:23:46;21.60;;;14.53;;
13415;SDS011;6779;50.150;8.680;2023-11-18T13:26:13;23.87;;;15.50;;
13415;SDS011;6779;50.150;8.680;2023-11-18T13:28:38;22.70;;;15.50;;
13415;SDS011;6779;50.150;8.680;2023-11-18T13:31:04;23.80;;;15.07;;
13415;SDS011;6779;50.150;8.680;2023-11-18T13:33:40;25.10;;;16.50;;
13415;SDS011;6779;50.150;8.680;2023-11-18T13:36:06;21.20;;;15.10;;
13415;SDS011;6779;50.150;8.680;2023-11-18T13:38:35;24.57;;;16.90;;
13415;SDS011;6779;50.150;8.680;2023-11-18T13:41:01;27.43;;;16.37;;
13415;SDS011;6779;50.150;8.680;2023-11-18T13:43:28;23.07;;;16.93;;
13415;SDS011;6779;50.150;8.680;2023-11-18T13:46:05;24.17;;;16.23;;
13415;SDS011;6779;50.150;8.680;2023-11-18T13:48:30;24.80;;;17.33;;
13415;SDS011;6779;50.150;8.680;2023-11-18T13:50:58;24.53;;;17.60;;
13415;SDS011;6779;50.150;8.680;2023-11-18T13:53:24;26.67;;;16.57;;
13415;SDS011;6779;50.150;8.680;2023-11-18T13:55:50;24.40;;;17.63;;
13415;SDS011;6779;50.150;8.680;2023-11-18T13:58:15;23.83;;;17.00;;
13415;SDS011;6779;50.150;8.680;2023-11-18T14:00:40;24.53;;;17.37;;
13415;SDS011;6779;50.150;8.680;2023-11-18T14:03:07;19.90;;;14.43;;
13415;SDS011;6779;50.150;8.680;2023-11-18T14:05:35;21.97;;;13.70;;
13415;SDS011;6779;50.150;8.680;2023-11-18T14:08:02;16.80;;;12.97;;
13415;SDS011;6779;50.150;8.680;2023-11-18T14:10:33;18.97;;;13.20;;
13415;SDS011;6779;50.150;8.680;2023-11-18T14:13:06;24.30;;;15.20;;
13415;SDS011;6779;50.150;8.680;2023-11-18T14:15:34;19.50;;;14.23;;
13415;SDS011;6779;50.150;8.680;2023-11-18T14:18:02;19.20;;;14.00;;
13415;SDS011;6779;50.150;8.680;2023-11-18T14:20:28;17.17;;;14.07;;
13415;SDS011;6779;50.150;8.680;2023-11-18T14:22:56;23.00;;;15.13;;
13415;SDS011;6779;50.150;8.680;2023-11-18T14:25:21;22.90;;;14.53;;
13415;SDS011;6779;50.150;8.680;2023-11-18T14:27:49;20.23;;;13.73;;
13415;SDS011;6779;50.150;8.680;2023-11-18T14:30:14;16.97;;;12.93;;
13415;SDS011;6779;50.150;8.680;2023-11-18T14:32:41;20.33;;;13.07;;
13415;SDS011;6779;50.150;8.680;2023-11-18T14:35:06;17.93;;;13.87;;
13415;SDS011;6779;50.150;8.680;2023-11-18T14:37:34;23.37;;;13.77;;
13415;SDS011;6779;50.150;8.680;2023-11-18T14:40:03;20.13;;;13.70;;
13415;SDS011;6779;50.150;8.680;2023-11-18T14:42:29;18.93;;;13.53;;
13415;SDS011;6779;50.150;8.680;2023-11-18T14:44:54;17.27;;;13.07;;
13415;SDS011;6779;50.150;8.680;2023-11-18T14:47:20;17.63;;;13.37;;
13415;SDS011;6779;50.150;8.680;2023-11-18T14:49:45;16.20;;;11.87;;
13415;SDS011;6779;50.150;8.680;2023-11-18T14:52:10;14.57;;;11.17;;
13415;SDS011;6779;50.150;8.680;2023-11-18T14:54:36;15.70;;;10.97;;
13415;SDS011;6779;50.150;8.680;2023-11-18T14:57:02;18.03;;;11.73;;
13415;SDS011;6779;50.150;8.680;2023-11-18T14:59:28;17.00;;;10.87;;
13415;SDS011;6779;50.150;8.680;2023-11-18T15:01:53;16.30;;;10.60;;
13415;SDS011;6779;50.150;8.680;2023-11-18T15:04:22;10.83;;;9.07;;